sensor_id;sensor_type;location;lat;lon;timestamp;P1;durP1;ratioP1;P2;durP2;ratioP2
80199;SDS011;69520;44.900;-0.764;2024-01-30T00:01:39;13.07;;;5.10;;
80199;SDS011;69520;44.900;-0.764;2024-01-30T00:04:05;13.10;;;5.18;;
80199;SDS011;69520;44.900;-0.764;2024-01-30T00:06:32;13.60;;;4.97;;
80199;SDS011;69520;44.900;-0.764;2024-01-30T00:08:58;11.10;;;4.90;;
80199;SDS011;69520;44.900;-0.764;2024-01-30T00:11:24;10.33;;;4.70;;
80199;SDS011;69520;44.900;-0.764;2024-01-30T00:13:54;12.35;;;5.57;;
80199;SDS011;69520;44.900;-0.764;2024-01-30T00:16:23;13.38;;;5.03;;
80199;SDS011;69520;44.900;-0.764;2024-01-30T00:18:53;10.40;;;4.68;;
80199;SDS011;69520;44.900;-0.764;2024-01-30T00:21:19;11.10;;;4.57;;
80199;SDS011;69520;44.900;-0.764;2024-01-30T00:23:46;11.07;;;4.37;;
80199;SDS011;69520;44.900;-0.764;2024-01-30T00:26:12;11.38;;;4.60;;
80199;SDS011;69520;44.900;-0.764;2024-01-30T00:28:39;11.68;;;4.70;;
80199;SDS011;69520;44.900;-0.764;2024-01-30T00:31:06;12.65;;;4.47;;
80199;SDS011;69520;44.900;-0.764;2024-01-30T00:33:32;16.70;;;4.90;;
80199;SDS011;69520;44.900;-0.764;2024-01-30T00:35:58;11.23;;;4.47;;
80199;SDS011;69520;44.900;-0.764;2024-01-30T00:38:24;11.63;;;4.43;;
80199;SDS011;69520;44.900;-0.764;2024-01-30T00:40:50;12.95;;;4.70;;
80199;SDS011;69520;44.900;-0.764;2024-01-30T00:43:16;11.80;;;4.95;;
80199;SDS011;69520;44.900;-0.764;2024-01-30T00:45:45;10.57;;;4.60;;
80199;SDS011;69520;44.900;-0.764;2024-01-30T00:48:11;11.10;;;4.43;;
80199;SDS011;69520;44.900;-0.764;2024-01-30T00:50:37;11.13;;;4.57;;
80199;SDS011;69520;44.900;-0.764;2024-01-30T00:53:03;14.70;;;4.68;;
80199;SDS011;69520;44.900;-0.764;2024-01-30T00:55:29;11.25;;;4.68;;
80199;SDS011;69520;44.900;-0.764;2024-01-30T00:57:55;13.45;;;4.20;;
80199;SDS011;69520;44.900;-0.764;2024-01-30T01:00:21;13.33;;;4.87;;
80199;SDS011;69520;44.900;-0.764;2024-01-30T01:02:53;12.57;;;4.20;;
80199;SDS011;69520;44.900;-0.764;2024-01-30T01:05:20;13.57;;;4.22;;
80199;SDS011;69520;44.900;-0.764;2024-01-30T01:07:46;12.52;;;4.07;;
80199;SDS011;69520;44.900;-0.764;2024-01-30T01:10:15;15.05;;;4.70;;
80199;SDS011;69520;44.900;-0.764;2024-01-30T01:12:42;13.23;;;4.87;;
80199;SDS011;69520;44.900;-0.764;2024-01-30T01:15:08;13.93;;;4.90;;
80199;SDS011;69520;44.900;-0.764;2024-01-30T01:17:35;14.75;;;5.25;;
80199;SDS011;69520;44.900;-0.764;2024-01-30T01:20:01;13.05;;;5.07;;
80199;SDS011;69520;44.900;-0.764;2024-01-30T01:22:28;10.27;;;4.60;;
80199;SDS011;69520;44.900;-0.764;2024-01-30T01:24:54;12.80;;;4.77;;
80199;SDS011;69520;44.900;-0.764;2024-01-30T01:27:20;12.05;;;4.50;;
80199;SDS011;69520;44.900;-0.764;2024-01-30T01:29:46;10.90;;;4.60;;
80199;SDS011;69520;44.900;-0.764;2024-01-30T01:32:12;11.00;;;4.50;;
80199;SDS011;69520;44.900;-0.764;2024-01-30T01:34:38;10.52;;;4.50;;
80199;SDS011;69520;44.900;-0.764;2024-01-30T01:37:04;13.67;;;4.63;;
80199;SDS011;69520;44.900;-0.764;2024-01-30T01:39:30;11.82;;;4.50;;
80199;SDS011;69520;44.900;-0.764;2024-01-30T01:41:56;9.77;;;4.32;;
80199;SDS011;69520;44.900;-0.764;2024-01-30T01:44:22;11.50;;;4.32;;
80199;SDS011;69520;44.900;-0.764;2024-01-30T01:46:48;9.05;;;3.92;;
80199;SDS011;69520;44.900;-0.764;2024-01-30T01:49:15;13.33;;;4.57;;
80199;SDS011;69520;44.900;-0.764;2024-01-30T01:51:41;11.40;;;4.18;;
80199;SDS011;69520;44.900;-0.764;2024-01-30T01:54:08;15.88;;;4.85;;
80199;SDS011;69520;44.900;-0.764;2024-01-30T01:56:35;12.38;;;5.13;;
80199;SDS011;69520;44.900;-0.764;2024-01-30T01:59:06;10.57;;;4.45;;
80199;SDS011;69520;44.900;-0.764;2024-01-30T02:01:33;11.13;;;4.97;;
80199;SDS011;69520;44.900;-0.764;2024-01-30T02:04:00;12.93;;;4.97;;
80199;SDS011;69520;44.900;-0.764;2024-01-30T02:06:26;11.23;;;4.70;;
80199;SDS011;69520;44.900;-0.764;2024-01-30T02:08:53;13.07;;;4.60;;
80199;SDS011;69520;44.900;-0.764;2024-01-30T02:11:19;12.70;;;4.50;;
80199;SDS011;69520;44.900;-0.764;2024-01-30T02:13:46;12.67;;;4.43;;
80199;SDS011;69520;44.900;-0.764;2024-01-30T02:16:12;14.32;;;4.70;;
80199;SDS011;69520;44.900;-0.764;2024-01-30T02:18:38;13.80;;;4.63;;
80199;SDS011;69520;44.900;-0.764;2024-01-30T02:21:08;12.30;;;4.75;;
80199;SDS011;69520;44.900;-0.764;2024-01-30T02:23:34;10.48;;;4.38;;
80199;SDS011;69520;44.900;-0.764;2024-01-30T02:26:00;12.47;;;4.77;;
80199;SDS011;69520;44.900;-0.764;2024-01-30T02:28:26;11.07;;;4.80;;
80199;SDS011;69520;44.900;-0.764;2024-01-30T02:30:52;12.90;;;4.18;;
80199;SDS011;69520;44.900;-0.764;2024-01-30T02:33:18;12.27;;;4.60;;
80199;SDS011;69520;44.900;-0.764;2024-01-30T02:35:47;12.50;;;4.85;;
80199;SDS011;69520;44.900;-0.764;2024-01-30T02:38:13;12.23;;;4.77;;
80199;SDS011;69520;44.900;-0.764;2024-01-30T02:40:39;10.70;;;4.60;;
80199;SDS011;69520;44.900;-0.764;2024-01-30T02:43:05;14.10;;;4.80;;
80199;SDS011;69520;44.900;-0.764;2024-01-30T02:45:31;11.63;;;4.80;;
80199;SDS011;69520;44.900;-0.764;2024-01-30T02:47:57;12.88;;;5.07;;
80199;SDS011;69520;44.900;-0.764;2024-01-30T02:50:23;12.03;;;5.00;;
80199;SDS011;69520;44.900;-0.764;2024-01-30T02:52:49;11.45;;;4.28;;
80199;SDS011;69520;44.900;-0.764;2024-01-30T02:55:15;11.50;;;4.45;;
80199;SDS011;69520;44.900;-0.764;2024-01-30T02:57:44;11.90;;;4.85;;
80199;SDS011;69520;44.900;-0.764;2024-01-30T03:00:10;11.10;;;4.22;;
80199;SDS011;69520;44.900;-0.764;2024-01-30T03:02:37;11.13;;;4.63;;
80199;SDS011;69520;44.900;-0.764;2024-01-30T03:05:03;10.80;;;4.50;;
80199;SDS011;69520;44.900;-0.764;2024-01-30T03:07:29;11.98;;;4.63;;
80199;SDS011;69520;44.900;-0.764;2024-01-30T03:09:55;11.43;;;4.63;;
80199;SDS011;69520;44.900;-0.764;2024-01-30T03:12:21;11.95;;;4.45;;
80199;SDS011;69520;44.900;-0.764;2024-01-30T03:14:48;12.80;;;4.50;;
80199;SDS011;69520;44.900;-0.764;2024-01-30T03:17:14;12.10;;;4.70;;
80199;SDS011;69520;44.900;-0.764;2024-01-30T03:19:40;11.25;;;4.47;;
80199;SDS011;69520;44.900;-0.764;2024-01-30T03:22:06;12.65;;;4.53;;
80199;SDS011;69520;44.900;-0.764;2024-01-30T03:24:32;12.77;;;4.90;;
80199;SDS011;69520;44.900;-0.764;2024-01-30T03:26:58;12.50;;;5.10;;
80199;SDS011;69520;44.900;-0.764;2024-01-30T03:29:24;11.50;;;4.70;;
80199;SDS011;69520;44.900;-0.764;2024-01-30T03:31:50;13.27;;;4.85;;
80199;SDS011;69520;44.900;-0.764;2024-01-30T03:34:16;10.57;;;4.65;;
80199;SDS011;69520;44.900;-0.764;2024-01-30T03:36:42;11.52;;;4.72;;
80199;SDS011;69520;44.900;-0.764;2024-01-30T03:39:09;14.13;;;5.40;;
80199;SDS011;69520;44.900;-0.764;2024-01-30T03:41:35;14.85;;;4.85;;
80199;SDS011;69520;44.900;-0.764;2024-01-30T03:44:01;11.52;;;5.00;;
80199;SDS011;69520;44.900;-0.764;2024-01-30T03:46:27;14.93;;;5.07;;
80199;SDS011;69520;44.900;-0.764;2024-01-30T03:48:53;12.25;;;5.78;;
80199;SDS011;69520;44.900;-0.764;2024-01-30T03:51:19;14.17;;;5.30;;
80199;SDS011;69520;44.900;-0.764;2024-01-30T03:53:45;13.77;;;6.03;;
80199;SDS011;69520;44.900;-0.764;2024-01-30T03:56:12;18.00;;;5.82;;
80199;SDS011;69520;44.900;-0.764;2024-01-30T03:58:39;11.82;;;5.43;;
80199;SDS011;69520;44.900;-0.764;2024-01-30T04:01:05;12.57;;;4.95;;
80199;SDS011;69520;44.900;-0.764;2024-01-30T04:03:31;14.10;;;5.30;;
80199;SDS011;69520;44.900;-0.764;2024-01-30T04:05:57;13.32;;;5.10;;
80199;SDS011;69520;44.900;-0.764;2024-01-30T04:08:23;14.05;;;5.05;;
80199;SDS011;69520;44.900;-0.764;2024-01-30T04:10:49;10.15;;;4.55;;
80199;SDS011;69520;44.900;-0.764;2024-01-30T04:13:15;11.52;;;4.95;;
80199;SDS011;69520;44.900;-0.764;2024-01-30T04:15:41;12.30;;;5.17;;
80199;SDS011;69520;44.900;-0.764;2024-01-30T04:18:07;13.32;;;4.95;;
80199;SDS011;69520;44.900;-0.764;2024-01-30T04:20:33;10.98;;;4.85;;
80199;SDS011;69520;44.900;-0.764;2024-01-30T04:22:59;10.70;;;5.03;;
80199;SDS011;69520;44.900;-0.764;2024-01-30T04:25:25;12.23;;;4.65;;
80199;SDS011;69520;44.900;-0.764;2024-01-30T04:27:51;13.20;;;4.87;;
80199;SDS011;69520;44.900;-0.764;2024-01-30T04:30:17;10.93;;;4.60;;
80199;SDS011;69520;44.900;-0.764;2024-01-30T04:32:43;11.73;;;4.75;;
80199;SDS011;69520;44.900;-0.764;2024-01-30T04:35:09;13.57;;;4.88;;
80199;SDS011;69520;44.900;-0.764;2024-01-30T04:37:35;11.90;;;4.75;;
80199;SDS011;69520;44.900;-0.764;2024-01-30T04:40:02;13.67;;;4.70;;
80199;SDS011;69520;44.900;-0.764;2024-01-30T04:42:28;12.82;;;4.68;;
80199;SDS011;69520;44.900;-0.764;2024-01-30T04:44:54;13.82;;;5.15;;
80199;SDS011;69520;44.900;-0.764;2024-01-30T04:47:20;13.43;;;5.03;;
80199;SDS011;69520;44.900;-0.764;2024-01-30T04:49:46;12.23;;;5.00;;
80199;SDS011;69520;44.900;-0.764;2024-01-30T04:52:12;13.37;;;4.40;;
80199;SDS011;69520;44.900;-0.764;2024-01-30T04:54:38;12.00;;;4.63;;
80199;SDS011;69520;44.900;-0.764;2024-01-30T04:57:04;11.82;;;4.85;;
80199;SDS011;69520;44.900;-0.764;2024-01-30T04:59:34;11.85;;;4.93;;
80199;SDS011;69520;44.900;-0.764;2024-01-30T05:02:01;13.98;;;5.60;;
80199;SDS011;69520;44.900;-0.764;2024-01-30T05:04:27;12.30;;;5.30;;
80199;SDS011;69520;44.900;-0.764;2024-01-30T05:06:53;14.38;;;5.60;;
80199;SDS011;69520;44.900;-0.764;2024-01-30T05:09:19;13.38;;;4.95;;
80199;SDS011;69520;44.900;-0.764;2024-01-30T05:11:46;12.20;;;5.45;;
80199;SDS011;69520;44.900;-0.764;2024-01-30T05:14:12;11.07;;;5.28;;
80199;SDS011;69520;44.900;-0.764;2024-01-30T05:16:40;15.10;;;4.90;;
80199;SDS011;69520;44.900;-0.764;2024-01-30T05:19:06;12.60;;;5.38;;
80199;SDS011;69520;44.900;-0.764;2024-01-30T05:21:32;12.38;;;5.50;;
80199;SDS011;69520;44.900;-0.764;2024-01-30T05:23:59;12.43;;;5.30;;
80199;SDS011;69520;44.900;-0.764;2024-01-30T05:26:25;14.00;;;5.88;;
80199;SDS011;69520;44.900;-0.764;2024-01-30T05:28:51;10.93;;;4.83;;
80199;SDS011;69520;44.900;-0.764;2024-01-30T05:31:17;13.50;;;5.45;;
80199;SDS011;69520;44.900;-0.764;2024-01-30T05:33:43;12.60;;;4.75;;
80199;SDS011;69520;44.900;-0.764;2024-01-30T05:36:11;12.93;;;5.78;;
80199;SDS011;69520;44.900;-0.764;2024-01-30T05:38:38;13.20;;;5.30;;
80199;SDS011;69520;44.900;-0.764;2024-01-30T05:41:08;12.00;;;5.23;;
80199;SDS011;69520;44.900;-0.764;2024-01-30T05:43:34;13.25;;;5.70;;
80199;SDS011;69520;44.900;-0.764;2024-01-30T05:46:00;13.77;;;4.97;;
80199;SDS011;69520;44.900;-0.764;2024-01-30T05:48:26;12.38;;;5.30;;
80199;SDS011;69520;44.900;-0.764;2024-01-30T05:50:52;12.25;;;5.38;;
80199;SDS011;69520;44.900;-0.764;2024-01-30T05:53:18;11.93;;;5.03;;
80199;SDS011;69520;44.900;-0.764;2024-01-30T05:55:44;13.80;;;5.40;;
80199;SDS011;69520;44.900;-0.764;2024-01-30T05:58:11;12.68;;;5.53;;
80199;SDS011;69520;44.900;-0.764;2024-01-30T06:00:37;12.57;;;5.00;;
80199;SDS011;69520;44.900;-0.764;2024-01-30T06:03:03;13.38;;;5.25;;
80199;SDS011;69520;44.900;-0.764;2024-01-30T06:05:29;14.93;;;5.57;;
80199;SDS011;69520;44.900;-0.764;2024-01-30T06:07:55;12.18;;;5.13;;
80199;SDS011;69520;44.900;-0.764;2024-01-30T06:10:21;13.65;;;5.32;;
80199;SDS011;69520;44.900;-0.764;2024-01-30T06:12:47;12.00;;;5.90;;
80199;SDS011;69520;44.900;-0.764;2024-01-30T06:15:13;15.10;;;5.80;;
80199;SDS011;69520;44.900;-0.764;2024-01-30T06:17:39;14.73;;;5.73;;
80199;SDS011;69520;44.900;-0.764;2024-01-30T06:20:06;12.52;;;5.88;;
80199;SDS011;69520;44.900;-0.764;2024-01-30T06:22:32;14.05;;;5.50;;
80199;SDS011;69520;44.900;-0.764;2024-01-30T06:24:58;14.45;;;5.47;;
80199;SDS011;69520;44.900;-0.764;2024-01-30T06:27:24;14.95;;;6.50;;
80199;SDS011;69520;44.900;-0.764;2024-01-30T06:29:51;13.17;;;5.83;;
80199;SDS011;69520;44.900;-0.764;2024-01-30T06:32:17;14.80;;;5.28;;
80199;SDS011;69520;44.900;-0.764;2024-01-30T06:34:43;11.77;;;5.25;;
80199;SDS011;69520;44.900;-0.764;2024-01-30T06:37:09;13.88;;;5.53;;
80199;SDS011;69520;44.900;-0.764;2024-01-30T06:39:35;14.30;;;5.68;;
80199;SDS011;69520;44.900;-0.764;2024-01-30T06:42:01;11.53;;;5.60;;
80199;SDS011;69520;44.900;-0.764;2024-01-30T06:44:27;14.10;;;5.80;;
80199;SDS011;69520;44.900;-0.764;2024-01-30T06:46:53;12.80;;;5.82;;
80199;SDS011;69520;44.900;-0.764;2024-01-30T06:49:20;12.30;;;5.63;;
80199;SDS011;69520;44.900;-0.764;2024-01-30T06:51:47;12.75;;;5.45;;
80199;SDS011;69520;44.900;-0.764;2024-01-30T06:54:13;11.50;;;5.63;;
80199;SDS011;69520;44.900;-0.764;2024-01-30T06:56:39;13.85;;;6.25;;
80199;SDS011;69520;44.900;-0.764;2024-01-30T06:59:05;11.93;;;6.00;;
80199;SDS011;69520;44.900;-0.764;2024-01-30T07:01:31;14.43;;;6.13;;
80199;SDS011;69520;44.900;-0.764;2024-01-30T07:03:57;14.85;;;6.20;;
80199;SDS011;69520;44.900;-0.764;2024-01-30T07:06:24;17.23;;;5.73;;
80199;SDS011;69520;44.900;-0.764;2024-01-30T07:08:50;14.20;;;6.03;;
80199;SDS011;69520;44.900;-0.764;2024-01-30T07:11:19;13.90;;;6.28;;
80199;SDS011;69520;44.900;-0.764;2024-01-30T07:13:49;18.60;;;8.57;;
80199;SDS011;69520;44.900;-0.764;2024-01-30T07:16:15;22.30;;;9.68;;
80199;SDS011;69520;44.900;-0.764;2024-01-30T07:18:42;25.87;;;11.40;;
80199;SDS011;69520;44.900;-0.764;2024-01-30T07:21:09;18.52;;;8.82;;
80199;SDS011;69520;44.900;-0.764;2024-01-30T07:23:35;18.83;;;9.15;;
80199;SDS011;69520;44.900;-0.764;2024-01-30T07:26:04;17.13;;;8.63;;
80199;SDS011;69520;44.900;-0.764;2024-01-30T07:28:30;20.05;;;9.07;;
80199;SDS011;69520;44.900;-0.764;2024-01-30T07:30:56;19.20;;;7.90;;
80199;SDS011;69520;44.900;-0.764;2024-01-30T07:33:22;16.75;;;7.47;;
80199;SDS011;69520;44.900;-0.764;2024-01-30T07:35:48;14.57;;;7.30;;
80199;SDS011;69520;44.900;-0.764;2024-01-30T07:38:14;16.73;;;7.55;;
80199;SDS011;69520;44.900;-0.764;2024-01-30T07:40:40;14.43;;;7.25;;
80199;SDS011;69520;44.900;-0.764;2024-01-30T07:43:06;16.93;;;7.33;;
80199;SDS011;69520;44.900;-0.764;2024-01-30T07:45:33;15.32;;;7.28;;
80199;SDS011;69520;44.900;-0.764;2024-01-30T07:47:59;16.08;;;7.95;;
80199;SDS011;69520;44.900;-0.764;2024-01-30T07:50:25;14.93;;;6.22;;
80199;SDS011;69520;44.900;-0.764;2024-01-30T07:52:51;18.83;;;7.32;;
80199;SDS011;69520;44.900;-0.764;2024-01-30T07:55:20;17.13;;;6.90;;
80199;SDS011;69520;44.900;-0.764;2024-01-30T07:57:49;15.48;;;7.18;;
80199;SDS011;69520;44.900;-0.764;2024-01-30T08:00:16;20.80;;;8.50;;
80199;SDS011;69520;44.900;-0.764;2024-01-30T08:02:42;17.38;;;8.65;;
80199;SDS011;69520;44.900;-0.764;2024-01-30T08:05:08;16.75;;;8.48;;
80199;SDS011;69520;44.900;-0.764;2024-01-30T08:07:36;16.23;;;8.20;;
80199;SDS011;69520;44.900;-0.764;2024-01-30T08:10:02;16.35;;;7.40;;
80199;SDS011;69520;44.900;-0.764;2024-01-30T08:12:28;16.67;;;7.78;;
80199;SDS011;69520;44.900;-0.764;2024-01-30T08:14:54;16.52;;;8.57;;
80199;SDS011;69520;44.900;-0.764;2024-01-30T08:17:20;17.88;;;7.95;;
80199;SDS011;69520;44.900;-0.764;2024-01-30T08:19:46;18.60;;;8.10;;
80199;SDS011;69520;44.900;-0.764;2024-01-30T08:22:12;16.48;;;7.25;;
80199;SDS011;69520;44.900;-0.764;2024-01-30T08:24:38;14.68;;;6.97;;
80199;SDS011;69520;44.900;-0.764;2024-01-30T08:27:06;19.45;;;8.00;;
80199;SDS011;69520;44.900;-0.764;2024-01-30T08:29:34;25.65;;;8.82;;
80199;SDS011;69520;44.900;-0.764;2024-01-30T08:32:00;18.40;;;7.90;;
80199;SDS011;69520;44.900;-0.764;2024-01-30T08:34:26;19.60;;;9.15;;
80199;SDS011;69520;44.900;-0.764;2024-01-30T08:36:52;18.77;;;8.20;;
80199;SDS011;69520;44.900;-0.764;2024-01-30T08:39:19;21.00;;;8.80;;
80199;SDS011;69520;44.900;-0.764;2024-01-30T08:41:45;16.77;;;7.78;;
80199;SDS011;69520;44.900;-0.764;2024-01-30T08:44:11;18.20;;;7.57;;
80199;SDS011;69520;44.900;-0.764;2024-01-30T08:46:37;17.17;;;7.32;;
80199;SDS011;69520;44.900;-0.764;2024-01-30T08:49:03;12.60;;;6.95;;
80199;SDS011;69520;44.900;-0.764;2024-01-30T08:51:32;16.40;;;7.05;;
80199;SDS011;69520;44.900;-0.764;2024-01-30T08:53:59;17.30;;;7.35;;
80199;SDS011;69520;44.900;-0.764;2024-01-30T08:56:25;13.93;;;7.30;;
80199;SDS011;69520;44.900;-0.764;2024-01-30T08:58:51;14.52;;;6.72;;
80199;SDS011;69520;44.900;-0.764;2024-01-30T09:01:17;16.25;;;6.78;;
80199;SDS011;69520;44.900;-0.764;2024-01-30T09:03:46;14.40;;;6.57;;
80199;SDS011;69520;44.900;-0.764;2024-01-30T09:06:12;16.75;;;6.32;;
80199;SDS011;69520;44.900;-0.764;2024-01-30T09:08:38;14.30;;;6.70;;
80199;SDS011;69520;44.900;-0.764;2024-01-30T09:11:16;11.77;;;5.60;;
80199;SDS011;69520;44.900;-0.764;2024-01-30T09:13:43;13.07;;;5.97;;
80199;SDS011;69520;44.900;-0.764;2024-01-30T09:16:09;16.50;;;6.65;;
80199;SDS011;69520;44.900;-0.764;2024-01-30T09:18:35;14.68;;;6.00;;
80199;SDS011;69520;44.900;-0.764;2024-01-30T09:21:01;12.10;;;6.03;;
80199;SDS011;69520;44.900;-0.764;2024-01-30T09:23:27;14.65;;;5.93;;
80199;SDS011;69520;44.900;-0.764;2024-01-30T09:25:53;12.52;;;6.07;;
80199;SDS011;69520;44.900;-0.764;2024-01-30T09:28:19;13.50;;;5.80;;
80199;SDS011;69520;44.900;-0.764;2024-01-30T09:30:45;13.35;;;5.65;;
80199;SDS011;69520;44.900;-0.764;2024-01-30T09:33:11;11.93;;;5.50;;
80199;SDS011;69520;44.900;-0.764;2024-01-30T09:35:37;12.73;;;5.32;;
80199;SDS011;69520;44.900;-0.764;2024-01-30T09:38:04;12.70;;;5.88;;
80199;SDS011;69520;44.900;-0.764;2024-01-30T09:40:30;14.63;;;5.22;;
80199;SDS011;69520;44.900;-0.764;2024-01-30T09:42:56;13.07;;;4.90;;
80199;SDS011;69520;44.900;-0.764;2024-01-30T09:45:25;13.00;;;4.70;;
80199;SDS011;69520;44.900;-0.764;2024-01-30T09:47:51;12.52;;;4.75;;
80199;SDS011;69520;44.900;-0.764;2024-01-30T09:50:18;12.50;;;5.05;;
80199;SDS011;69520;44.900;-0.764;2024-01-30T09:52:44;11.20;;;4.40;;
80199;SDS011;69520;44.900;-0.764;2024-01-30T09:55:10;12.30;;;4.72;;
80199;SDS011;69520;44.900;-0.764;2024-01-30T09:57:36;12.77;;;4.70;;
80199;SDS011;69520;44.900;-0.764;2024-01-30T10:00:03;12.07;;;4.93;;
80199;SDS011;69520;44.900;-0.764;2024-01-30T10:02:31;11.55;;;4.63;;
80199;SDS011;69520;44.900;-0.764;2024-01-30T10:04:57;10.13;;;4.40;;
80199;SDS011;69520;44.900;-0.764;2024-01-30T10:07:23;15.10;;;4.65;;
80199;SDS011;69520;44.900;-0.764;2024-01-30T10:09:49;10.87;;;4.40;;
80199;SDS011;69520;44.900;-0.764;2024-01-30T10:12:15;11.10;;;4.60;;
80199;SDS011;69520;44.900;-0.764;2024-01-30T10:14:42;11.98;;;4.60;;
80199;SDS011;69520;44.900;-0.764;2024-01-30T10:17:08;10.38;;;4.57;;
80199;SDS011;69520;44.900;-0.764;2024-01-30T10:19:38;10.27;;;3.80;;
80199;SDS011;69520;44.900;-0.764;2024-01-30T10:22:05;8.83;;;3.93;;
80199;SDS011;69520;44.900;-0.764;2024-01-30T10:24:32;11.18;;;4.10;;
80199;SDS011;69520;44.900;-0.764;2024-01-30T10:26:59;11.80;;;4.20;;
80199;SDS011;69520;44.900;-0.764;2024-01-30T10:29:25;10.40;;;3.97;;
80199;SDS011;69520;44.900;-0.764;2024-01-30T10:32:04;10.38;;;4.40;;
80199;SDS011;69520;44.900;-0.764;2024-01-30T10:34:31;10.53;;;4.20;;
80199;SDS011;69520;44.900;-0.764;2024-01-30T10:37:10;9.88;;;4.30;;
80199;SDS011;69520;44.900;-0.764;2024-01-30T10:39:46;11.35;;;4.57;;
80199;SDS011;69520;44.900;-0.764;2024-01-30T10:42:12;11.35;;;4.30;;
80199;SDS011;69520;44.900;-0.764;2024-01-30T10:45:00;10.35;;;4.13;;
80199;SDS011;69520;44.900;-0.764;2024-01-30T10:47:28;9.27;;;4.40;;
80199;SDS011;69520;44.900;-0.764;2024-01-30T10:49:57;9.98;;;4.25;;
80199;SDS011;69520;44.900;-0.764;2024-01-30T10:52:23;10.23;;;4.22;;
80199;SDS011;69520;44.900;-0.764;2024-01-30T10:54:54;8.95;;;3.97;;
80199;SDS011;69520;44.900;-0.764;2024-01-30T10:57:22;10.30;;;3.80;;
80199;SDS011;69520;44.900;-0.764;2024-01-30T10:59:48;9.43;;;4.20;;
80199;SDS011;69520;44.900;-0.764;2024-01-30T11:02:15;10.65;;;3.90;;
80199;SDS011;69520;44.900;-0.764;2024-01-30T11:04:41;9.15;;;4.70;;
80199;SDS011;69520;44.900;-0.764;2024-01-30T11:07:24;10.02;;;3.50;;
80199;SDS011;69520;44.900;-0.764;2024-01-30T11:09:50;9.23;;;4.50;;
80199;SDS011;69520;44.900;-0.764;2024-01-30T11:12:16;9.67;;;4.17;;
80199;SDS011;69520;44.900;-0.764;2024-01-30T11:14:47;9.50;;;3.65;;
80199;SDS011;69520;44.900;-0.764;2024-01-30T11:17:13;7.55;;;4.00;;
80199;SDS011;69520;44.900;-0.764;2024-01-30T11:19:39;10.00;;;4.30;;
80199;SDS011;69520;44.900;-0.764;2024-01-30T11:22:07;9.73;;;4.55;;
80199;SDS011;69520;44.900;-0.764;2024-01-30T11:24:41;12.03;;;4.20;;
80199;SDS011;69520;44.900;-0.764;2024-01-30T11:27:08;8.48;;;3.90;;
80199;SDS011;69520;44.900;-0.764;2024-01-30T11:29:35;12.07;;;4.60;;
80199;SDS011;69520;44.900;-0.764;2024-01-30T11:32:02;9.05;;;4.18;;
80199;SDS011;69520;44.900;-0.764;2024-01-30T11:34:28;10.45;;;3.80;;
80199;SDS011;69520;44.900;-0.764;2024-01-30T11:36:57;10.50;;;4.23;;
80199;SDS011;69520;44.900;-0.764;2024-01-30T11:39:24;8.88;;;3.92;;
80199;SDS011;69520;44.900;-0.764;2024-01-30T11:41:54;11.02;;;4.03;;
80199;SDS011;69520;44.900;-0.764;2024-01-30T11:44:20;9.32;;;3.80;;
80199;SDS011;69520;44.900;-0.764;2024-01-30T11:46:50;12.20;;;4.13;;
80199;SDS011;69520;44.900;-0.764;2024-01-30T11:49:16;11.77;;;4.03;;
80199;SDS011;69520;44.900;-0.764;2024-01-30T11:51:43;10.38;;;3.78;;
80199;SDS011;69520;44.900;-0.764;2024-01-30T11:54:09;10.30;;;4.40;;
80199;SDS011;69520;44.900;-0.764;2024-01-30T11:56:36;11.13;;;4.00;;
80199;SDS011;69520;44.900;-0.764;2024-01-30T11:59:02;12.73;;;3.90;;
80199;SDS011;69520;44.900;-0.764;2024-01-30T12:01:28;9.50;;;4.23;;
80199;SDS011;69520;44.900;-0.764;2024-01-30T12:03:55;9.20;;;4.10;;
80199;SDS011;69520;44.900;-0.764;2024-01-30T12:06:22;10.20;;;3.90;;
80199;SDS011;69520;44.900;-0.764;2024-01-30T12:08:58;10.18;;;4.55;;
80199;SDS011;69520;44.900;-0.764;2024-01-30T12:11:24;10.68;;;4.07;;
80199;SDS011;69520;44.900;-0.764;2024-01-30T12:13:51;9.17;;;4.33;;
80199;SDS011;69520;44.900;-0.764;2024-01-30T12:16:17;10.32;;;4.30;;
80199;SDS011;69520;44.900;-0.764;2024-01-30T12:18:43;8.63;;;4.18;;
80199;SDS011;69520;44.900;-0.764;2024-01-30T12:21:09;11.52;;;4.95;;
80199;SDS011;69520;44.900;-0.764;2024-01-30T12:23:35;12.43;;;4.68;;
80199;SDS011;69520;44.900;-0.764;2024-01-30T12:26:01;9.97;;;4.13;;
80199;SDS011;69520;44.900;-0.764;2024-01-30T12:28:28;11.52;;;4.43;;
80199;SDS011;69520;44.900;-0.764;2024-01-30T12:30:55;8.85;;;3.83;;
80199;SDS011;69520;44.900;-0.764;2024-01-30T12:33:26;9.05;;;4.03;;
80199;SDS011;69520;44.900;-0.764;2024-01-30T12:35:52;9.30;;;4.60;;
80199;SDS011;69520;44.900;-0.764;2024-01-30T12:38:18;8.20;;;4.03;;
80199;SDS011;69520;44.900;-0.764;2024-01-30T12:40:44;9.38;;;4.55;;
80199;SDS011;69520;44.900;-0.764;2024-01-30T12:43:11;13.02;;;4.80;;
80199;SDS011;69520;44.900;-0.764;2024-01-30T12:45:40;9.48;;;4.10;;
80199;SDS011;69520;44.900;-0.764;2024-01-30T12:48:06;10.55;;;4.38;;
80199;SDS011;69520;44.900;-0.764;2024-01-30T12:50:33;10.67;;;4.70;;
80199;SDS011;69520;44.900;-0.764;2024-01-30T12:52:59;9.52;;;4.75;;
80199;SDS011;69520;44.900;-0.764;2024-01-30T12:55:25;9.60;;;4.57;;
80199;SDS011;69520;44.900;-0.764;2024-01-30T12:57:53;10.43;;;4.22;;
80199;SDS011;69520;44.900;-0.764;2024-01-30T13:00:19;8.77;;;4.40;;
80199;SDS011;69520;44.900;-0.764;2024-01-30T13:02:46;9.33;;;4.20;;
80199;SDS011;69520;44.900;-0.764;2024-01-30T13:05:13;10.35;;;5.10;;
80199;SDS011;69520;44.900;-0.764;2024-01-30T13:07:39;10.02;;;4.07;;
80199;SDS011;69520;44.900;-0.764;2024-01-30T13:10:05;9.93;;;4.50;;
80199;SDS011;69520;44.900;-0.764;2024-01-30T13:12:31;10.55;;;4.60;;
80199;SDS011;69520;44.900;-0.764;2024-01-30T13:14:58;9.17;;;4.47;;
80199;SDS011;69520;44.900;-0.764;2024-01-30T13:17:26;9.15;;;4.05;;
80199;SDS011;69520;44.900;-0.764;2024-01-30T13:19:52;12.00;;;4.90;;
80199;SDS011;69520;44.900;-0.764;2024-01-30T13:22:19;9.43;;;4.10;;
80199;SDS011;69520;44.900;-0.764;2024-01-30T13:24:46;9.07;;;4.30;;
80199;SDS011;69520;44.900;-0.764;2024-01-30T13:27:12;8.70;;;3.83;;
80199;SDS011;69520;44.900;-0.764;2024-01-30T13:29:38;8.15;;;4.15;;
80199;SDS011;69520;44.900;-0.764;2024-01-30T13:32:04;9.23;;;4.60;;
80199;SDS011;69520;44.900;-0.764;2024-01-30T13:34:31;10.65;;;4.40;;
80199;SDS011;69520;44.900;-0.764;2024-01-30T13:36:57;11.10;;;4.60;;
80199;SDS011;69520;44.900;-0.764;2024-01-30T13:39:23;9.27;;;4.30;;
80199;SDS011;69520;44.900;-0.764;2024-01-30T13:41:49;10.60;;;4.20;;
80199;SDS011;69520;44.900;-0.764;2024-01-30T13:44:15;10.88;;;4.47;;
80199;SDS011;69520;44.900;-0.764;2024-01-30T13:46:42;9.00;;;4.80;;
80199;SDS011;69520;44.900;-0.764;2024-01-30T13:49:08;11.98;;;4.80;;
80199;SDS011;69520;44.900;-0.764;2024-01-30T13:51:34;8.77;;;3.90;;
80199;SDS011;69520;44.900;-0.764;2024-01-30T13:54:00;8.95;;;4.20;;
80199;SDS011;69520;44.900;-0.764;2024-01-30T13:56:26;8.82;;;4.63;;
80199;SDS011;69520;44.900;-0.764;2024-01-30T13:58:52;9.60;;;4.40;;
80199;SDS011;69520;44.900;-0.764;2024-01-30T14:01:20;9.20;;;4.50;;
80199;SDS011;69520;44.900;-0.764;2024-01-30T14:03:46;10.07;;;4.67;;
80199;SDS011;69520;44.900;-0.764;2024-01-30T14:06:12;9.05;;;4.70;;
80199;SDS011;69520;44.900;-0.764;2024-01-30T14:08:39;9.43;;;4.05;;
80199;SDS011;69520;44.900;-0.764;2024-01-30T14:11:05;9.13;;;4.20;;
80199;SDS011;69520;44.900;-0.764;2024-01-30T14:13:34;9.23;;;4.50;;
80199;SDS011;69520;44.900;-0.764;2024-01-30T14:16:00;8.93;;;4.10;;
80199;SDS011;69520;44.900;-0.764;2024-01-30T14:18:26;10.38;;;4.47;;
80199;SDS011;69520;44.900;-0.764;2024-01-30T14:20:53;10.63;;;4.30;;